Time;durP1;ratioP1;P1;durP2;ratioP2;P2;SDS_P1;SDS_P2;PMS_P1;PMS_P2;Temp;Humidity;BMP_temperature;BMP_pressure;BME280_temperature;BME280_humidity;BME280_pressure;Samples;Min_cycle;Max_cycle;Signal;HPM_P1;HPM_P2
2022/11/03 00:00:01;;;;;;;18.73;3.87;;;;;;;11.08;88.01;101383.72;5252879;28;20100;-70
2022/11/03 00:02:32;;;;;;;13.73;3.67;;;;;;;11.17;87.62;101384.16;5254285;28;20033;-69
2022/11/03 00:06:03;;;;;;;18.00;3.87;;;;;;;11.12;87.72;101379.16;5253970;28;20059;-69
2022/11/03 00:07:55;;;;;;;13.07;4.17;;;;;;;11.11;87.77;101369.59;5258483;28;20086;-70
2022/11/03 00:10:26;;;;;;;19.83;4.90;;;;;;;11.18;87.61;101372.72;5273574;28;20024;-72
2022/11/03 00:12:57;;;;;;;18.17;3.73;;;;;;;11.10;87.79;101355.63;5275287;28;20016;-70
2022/11/03 00:15:29;;;;;;;20.97;4.47;;;;;;;11.11;87.92;101359.97;5273919;28;20114;-69
2022/11/03 00:18:00;;;;;;;12.83;3.43;;;;;;;11.11;87.50;101366.97;5273819;28;20025;-69
2022/11/03 00:20:31;;;;;;;16.33;3.43;;;;;;;11.12;87.61;101359.03;5272379;28;20790;-70
2022/11/03 00:23:02;;;;;;;13.83;2.90;;;;;;;11.20;87.48;101355.16;5253413;28;20073;-70
2022/11/03 00:25:34;;;;;;;13.13;3.10;;;;;;;11.15;87.77;101355.41;5254444;28;20029;-69
2022/11/03 00:28:05;;;;;;;12.30;3.93;;;;;;;11.17;87.71;101355.31;5300268;28;20036;-72
2022/11/03 00:30:38;;;;;;;21.87;4.10;;;;;;;11.19;87.52;101350.84;5273651;28;20030;-71
2022/11/03 00:33:09;;;;;;;13.23;3.50;;;;;;;11.12;87.37;101343.31;5274915;28;20028;-70
2022/11/03 00:35:40;;;;;;;19.63;3.20;;;;;;;11.09;87.57;101338.22;5273100;28;20035;-72
2022/11/03 00:38:12;;;;;;;13.90;3.50;;;;;;;11.17;87.33;101345.66;5272677;28;20039;-70
2022/11/03 00:40:43;;;;;;;17.43;3.43;;;;;;;11.17;87.39;101339.59;5273816;28;20078;-71
2022/11/03 00:43:14;;;;;;;14.13;3.43;;;;;;;11.19;87.20;101325.47;5273646;28;20028;-69
2022/11/03 00:45:46;;;;;;;14.43;3.43;;;;;;;11.17;87.41;101324.69;5273226;28;20028;-72
2022/11/03 00:48:29;;;;;;;17.20;3.50;;;;;;;11.23;86.92;101315.66;5274441;28;20033;-71
2022/11/03 00:51:18;;;;;;;17.57;4.73;;;;;;;11.17;87.24;101308.97;5274372;28;20056;-71
2022/11/03 00:53:52;;;;;;;15.93;3.50;;;;;;;11.19;87.42;101314.97;5274320;28;20025;-69
2022/11/03 00:56:26;;;;;;;16.08;3.10;;;;;;;11.21;87.30;101314.88;5274356;28;20523;-69
2022/11/03 00:58:59;;;;;;;15.57;3.92;;;;;;;11.18;87.61;101312.44;5272930;28;20072;-69
2022/11/03 01:01:36;;;;;;;15.70;3.20;;;;;;;11.25;86.98;101308.56;5273864;28;20490;-70
2022/11/03 01:06:59;;;;;;;13.00;2.97;;;;;;;11.21;87.52;101299.16;5274387;28;20028;-69
2022/11/03 01:09:34;;;;;;;18.60;3.87;;;;;;;11.25;87.35;101292.81;5273754;28;20085;-70
2022/11/03 01:12:11;;;;;;;9.57;2.93;;;;;;;11.30;87.22;101288.16;5274329;28;20463;-69
2022/11/03 01:14:48;;;;;;;14.20;3.13;;;;;;;11.29;87.01;101281.25;5271152;28;20493;-70
2022/11/03 01:17:23;;;;;;;15.57;3.50;;;;;;;11.29;87.17;101276.00;5272778;28;20040;-73
2022/11/03 01:19:55;;;;;;;13.70;3.97;;;;;;;11.29;87.37;101281.25;5272485;28;20059;-70
2022/11/03 01:22:26;;;;;;;11.30;2.40;;;;;;;11.33;87.14;101281.88;5274093;28;20107;-70
2022/11/03 01:24:57;;;;;;;10.50;2.97;;;;;;;11.32;87.08;101275.81;5274257;28;20024;-69
2022/11/03 01:27:29;;;;;;;14.77;3.60;;;;;;;11.31;87.45;101274.13;5272223;28;20024;-70
2022/11/03 01:30:00;;;;;;;10.10;3.57;;;;;;;11.30;87.22;101267.19;5272439;28;20031;-73
2022/11/03 01:32:31;;;;;;;13.53;3.93;;;;;;;11.29;87.11;101254.16;5272798;28;20131;-73
2022/11/03 01:35:03;;;;;;;16.40;4.20;;;;;;;11.25;87.74;101251.72;5272298;28;20094;-70
2022/11/03 01:37:34;;;;;;;14.60;3.60;;;;;;;11.25;87.24;101243.84;5277674;28;20020;-71
2022/11/03 01:40:06;;;;;;;11.60;3.37;;;;;;;11.36;87.20;101261.59;5277560;28;20040;-70
2022/11/03 01:42:37;;;;;;;13.43;3.00;;;;;;;11.38;87.25;101249.25;5278515;28;20037;-70
2022/11/03 01:45:09;;;;;;;14.73;2.97;;;;;;;11.38;87.33;101253.63;5277098;28;20039;-70
2022/11/03 01:47:42;;;;;;;10.10;3.17;;;;;;;11.44;87.30;101236.72;5277853;28;20078;-70
2022/11/03 01:50:17;;;;;;;15.10;3.17;;;;;;;11.40;87.55;101240.47;5278786;28;20395;-70
2022/11/03 01:52:57;;;;;;;12.57;2.87;;;;;;;11.40;87.73;101232.59;5277746;28;20031;-73
2022/11/03 01:55:35;;;;;;;22.40;3.70;;;;;;;11.44;87.34;101223.59;5277049;28;20032;-70
2022/11/03 01:58:12;;;;;;;14.73;4.63;;;;;;;11.42;87.81;101225.44;5280537;28;20804;-69
2022/11/03 02:00:47;;;;;;;13.87;3.20;;;;;;;11.42;88.07;101226.31;5276447;28;20021;-70
2022/11/03 02:03:19;;;;;;;;;;;;;;;11.47;87.24;101228.66;5310878;22;20057;-70
2022/11/03 02:05:52;;;;;;;16.53;3.53;;;;;;;11.37;87.99;101223.97;5233103;28;20378;-70
2022/11/03 02:08:29;;;;;;;14.60;3.53;;;;;;;11.39;88.14;101221.25;5233930;28;20021;-70
2022/11/03 02:12:05;;;;;;;13.23;3.37;;;;;;;11.40;88.28;101216.84;5234139;28;20029;-71
2022/11/03 02:13:52;;;;;;;14.17;3.10;;;;;;;11.36;88.22;101208.31;5233350;28;20025;-72
2022/11/03 02:16:27;;;;;;;14.73;2.93;;;;;;;11.41;88.32;101200.19;5232829;28;20106;-69
2022/11/03 02:19:01;;;;;;;15.83;3.33;;;;;;;11.29;88.26;101191.25;5231901;28;20028;-72
2022/11/03 02:21:53;;;;;;;16.98;3.83;;;;;;;11.24;87.92;101179.22;5232749;28;20029;-70
2022/11/03 02:24:37;;;;;;;8.30;2.53;;;;;;;11.41;88.13;101194.94;5233088;28;20038;-70
2022/11/03 02:27:08;;;;;;;17.88;3.78;;;;;;;11.38;88.04;101188.91;5233168;28;20110;-69
2022/11/03 02:29:40;;;;;;;17.70;3.27;;;;;;;11.40;88.28;101185.38;5231955;28;20029;-73
2022/11/03 02:32:23;;;;;;;16.70;4.33;;;;;;;11.32;88.66;101177.94;5232802;28;20029;-70
2022/11/03 02:35:10;;;;;;;9.07;2.87;;;;;;;11.34;88.76;101182.19;5258860;28;20056;-71
2022/11/03 02:37:46;;;;;;;12.30;2.90;;;;;;;11.29;88.98;101176.34;5222799;28;20110;-70
2022/11/03 02:40:44;;;;;;;16.47;3.10;;;;;;;11.34;88.83;101171.69;5233112;28;20470;-69
2022/11/03 02:43:17;;;;;;;15.77;3.57;;;;;;;11.26;89.15;101155.53;5230904;28;20038;-69
2022/11/03 02:45:51;;;;;;;17.13;3.23;;;;;;;11.30;89.17;101156.22;5231615;28;20503;-70
2022/11/03 02:48:22;;;;;;;12.48;2.85;;;;;;;11.24;90.05;101152.19;5230577;28;20535;-70
2022/11/03 02:50:53;;;;;;;10.77;3.00;;;;;;;11.25;89.84;101153.84;5232964;28;20125;-69
2022/11/03 02:53:27;;;;;;;12.83;3.20;;;;;;;11.31;89.68;101156.13;5232269;28;20048;-71
2022/11/03 02:56:12;;;;;;;15.77;3.27;;;;;;;11.34;89.56;101148.09;5232789;28;20037;-72
2022/11/03 02:59:05;;;;;;;11.93;3.10;;;;;;;11.30;89.80;101140.47;5215380;28;20028;-70
2022/11/03 03:02:03;;;;;;;13.23;2.90;;;;;;;11.31;89.76;101132.53;5230478;28;20041;-70
2022/11/03 03:04:39;;;;;;;9.57;3.53;;;;;;;11.31;90.08;101132.53;5232739;28;20041;-70
2022/11/03 03:07:23;;;;;;;13.80;3.27;;;;;;;11.23;90.78;101126.88;5232528;28;20088;-69
2022/11/03 03:10:06;;;;;;;13.57;4.05;;;;;;;11.29;90.50;101123.91;5231543;28;20025;-72
2022/11/03 03:12:42;;;;;;;13.37;3.47;;;;;;;11.28;91.13;101124.84;5232524;28;20466;-70
2022/11/03 03:15:15;;;;;;;14.43;3.53;;;;;;;11.30;90.82;101117.72;5230939;28;20041;-70
2022/11/03 03:17:57;;;;;;;11.23;2.77;;;;;;;11.34;90.53;101116.63;5232082;28;20056;-70
2022/11/03 03:20:55;;;;;;;13.33;3.60;;;;;;;11.38;90.57;101118.13;5232892;28;20472;-69
2022/11/03 03:23:32;;;;;;;11.70;3.30;;;;;;;11.26;91.36;101100.47;5229064;28;20037;-69
2022/11/03 03:26:09;;;;;;;9.53;2.77;;;;;;;11.29;91.50;101094.22;5232834;28;20108;-70
2022/11/03 03:28:47;;;;;;;12.83;3.20;;;;;;;11.27;91.49;101098.72;5230454;28;20036;-71
2022/11/03 03:31:20;;;;;;;14.67;4.10;;;;;;;11.29;91.56;101097.69;5231790;28;20487;-69
2022/11/03 03:33:53;;;;;;;12.43;3.67;;;;;;;11.30;91.66;101095.91;5232061;28;20033;-70
2022/11/03 03:36:27;;;;;;;11.43;3.20;;;;;;;11.27;91.94;101102.19;5232292;28;20121;-70
2022/11/03 03:39:02;;;;;;;18.50;3.80;;;;;;;11.33;91.52;101095.72;5231006;28;20068;-70
2022/11/03 03:41:36;;;;;;;13.80;3.53;;;;;;;11.28;91.66;101085.50;5230340;28;20272;-69
2022/11/03 03:44:09;;;;;;;13.90;2.83;;;;;;;11.27;92.22;101083.84;5231315;28;20060;-70
2022/11/03 03:46:45;;;;;;;18.53;4.73;;;;;;;11.29;92.18;101076.72;5229707;28;20329;-70
2022/11/03 03:49:17;;;;;;;13.90;3.63;;;;;;;11.20;92.63;101056.28;5230389;28;20041;-70
2022/11/03 03:51:49;;;;;;;10.97;3.10;;;;;;;11.27;92.79;101072.50;5231686;28;20029;-70
2022/11/03 03:54:20;;;;;;;14.83;3.07;;;;;;;11.25;93.30;101064.72;5232156;28;20037;-70
2022/11/03 03:57:00;;;;;;;11.73;3.00;;;;;;;11.30;93.40;101059.19;5231999;28;20069;-68
2022/11/03 03:59:31;;;;;;;14.07;3.13;;;;;;;11.30;93.76;101052.19;5227798;28;20036;-72
2022/11/03 04:02:02;;;;;;;15.13;4.00;;;;;;;11.24;94.17;101058.63;5231448;28;20021;-70
2022/11/03 04:04:34;;;;;;;13.57;4.23;;;;;;;11.27;94.07;101062.84;5231138;28;20053;-70
2022/11/03 04:09:55;;;;;;;15.63;3.73;;;;;;;11.29;94.25;101049.66;5231683;28;20097;-70
2022/11/03 04:23:47;;;;;;;11.43;3.13;;;;;;;11.35;95.38;101047.50;5230522;28;20153;-70
2022/11/03 04:26:22;;;;;;;11.00;2.77;;;;;;;11.38;95.43;101049.94;5230392;28;20022;-70
2022/11/03 04:28:54;;;;;;;10.30;3.03;;;;;;;11.39;95.48;101045.53;5230238;28;20171;-70
2022/11/03 04:31:29;;;;;;;14.10;4.37;;;;;;;11.38;95.78;101042.06;5229913;28;20112;-71
2022/11/03 04:34:02;;;;;;;;;;;;;;;11.45;94.61;101031.22;5231266;28;20056;-70
2022/11/03 04:36:33;;;;;;;15.00;3.27;;;;;;;11.33;96.01;101025.78;5252637;28;19978;-70
2022/11/03 04:39:18;;;;;;;12.50;3.20;;;;;;;11.43;96.26;101031.28;5225700;28;20037;-69
2022/11/03 04:41:50;;;;;;;18.33;3.93;;;;;;;11.36;97.25;101020.34;5211134;28;20369;-70
2022/11/03 04:44:21;;;;;;;11.50;4.30;;;;;;;11.38;97.59;101033.34;5227265;28;20675;-71
2022/11/03 04:46:53;;;;;;;11.27;3.00;;;;;;;11.36;98.68;101025.56;5228808;28;20033;-71
2022/11/03 04:49:24;;;;;;;15.00;3.43;;;;;;;11.35;98.70;101013.41;5231100;28;20057;-68
2022/11/03 04:51:56;;;;;;;16.17;3.50;;;;;;;11.31;99.15;101006.66;5244668;28;20056;-69
2022/11/03 04:54:27;;;;;;;13.93;3.33;;;;;;;11.38;99.98;101017.63;5229251;28;20051;-70
2022/11/03 04:57:07;;;;;;;15.03;3.67;;;;;;;11.31;100.00;101005.84;5230100;28;20045;-72
2022/11/03 04:59:40;;;;;;;12.80;3.43;;;;;;;11.38;100.00;101007.13;5229291;28;20087;-69
2022/11/03 05:02:20;;;;;;;14.73;3.23;;;;;;;11.36;100.00;101001.97;5230543;28;20453;-70
2022/11/03 05:04:52;;;;;;;9.47;3.27;;;;;;;11.36;100.00;100988.88;5229448;28;20120;-70
2022/11/03 05:07:30;;;;;;;13.27;3.47;;;;;;;11.35;100.00;100996.81;5230016;28;20547;-69
2022/11/03 05:10:05;;;;;;;11.23;3.13;;;;;;;11.36;100.00;100994.13;5229947;28;20025;-71
2022/11/03 05:12:36;;;;;;;12.80;2.83;;;;;;;11.33;100.00;100991.69;5230657;28;20479;-69
2022/11/03 05:15:28;;;;;;;13.03;3.70;;;;;;;11.41;100.00;100985.97;5223253;28;20038;-69
2022/11/03 05:18:03;;;;;;;11.73;3.17;;;;;;;11.40;100.00;100978.22;5231441;28;20044;-67
2022/11/03 05:20:39;;;;;;;15.73;3.63;;;;;;;11.37;100.00;100982.69;5233048;28;20033;-69
2022/11/03 05:23:11;;;;;;;11.47;3.10;;;;;;;11.31;100.00;100964.72;5232539;28;20033;-69
2022/11/03 05:25:46;;;;;;;11.93;4.53;;;;;;;11.41;100.00;100970.25;5232250;28;20026;-69
2022/11/03 05:28:23;;;;;;;14.53;3.90;;;;;;;11.43;100.00;100967.53;5233015;28;20083;-69
2022/11/03 05:30:54;;;;;;;16.20;3.43;;;;;;;11.42;100.00;100952.72;5226809;28;20403;-71
2022/11/03 05:33:35;;;;;;;14.17;3.67;;;;;;;11.36;100.00;100946.09;5231604;28;20021;-71
2022/11/03 05:36:13;;;;;;;12.03;2.43;;;;;;;11.43;100.00;100957.03;5228014;28;20045;-72
2022/11/03 05:38:44;;;;;;;11.33;4.63;;;;;;;11.31;100.00;100927.19;5215125;28;20417;-71
2022/11/03 05:41:26;;;;;;;12.03;2.97;;;;;;;11.42;100.00;100947.47;5228524;28;20018;-71
2022/11/03 05:44:23;;;;;;;15.73;2.87;;;;;;;11.42;100.00;100944.84;5228245;28;20056;-72
2022/11/03 05:46:57;;;;;;;16.90;3.57;;;;;;;11.36;100.00;100933.81;5224186;28;20456;-71
2022/11/03 05:49:29;;;;;;;13.93;3.47;;;;;;;11.40;100.00;100925.78;5229791;28;20025;-71
2022/11/03 05:52:00;;;;;;;12.90;3.13;;;;;;;11.41;100.00;100933.53;5229520;28;20388;-73
2022/11/03 05:54:33;;;;;;;13.73;3.90;;;;;;;11.36;100.00;100923.31;5229404;28;20631;-72
2022/11/03 05:57:13;;;;;;;17.20;4.45;;;;;;;11.42;100.00;100924.72;5228140;28;20025;-71
2022/11/03 05:59:48;;;;;;;21.37;3.67;;;;;;;11.44;100.00;100919.38;5228768;28;20080;-70
2022/11/03 06:02:35;;;;;;;14.88;2.63;;;;;;;11.39;100.00;100911.81;5229805;28;20022;-75
2022/11/03 06:05:23;;;;;;;13.93;2.90;;;;;;;11.42;100.00;100913.38;5209360;28;20042;-72
2022/11/03 06:07:59;;;;;;;14.70;3.30;;;;;;;11.43;100.00;100904.59;5209175;28;20054;-71
2022/11/03 06:10:35;;;;;;;15.97;3.70;;;;;;;11.46;100.00;100913.09;5209501;28;20026;-70
2022/11/03 06:13:19;;;;;;;10.37;3.00;;;;;;;11.48;100.00;100905.16;5207261;28;20030;-72
2022/11/03 06:15:56;;;;;;;9.68;3.22;;;;;;;11.44;100.00;100890.53;5215604;28;20079;-72
2022/11/03 06:18:35;;;;;;;15.67;4.10;;;;;;;11.46;100.00;100891.28;5229204;28;20030;-71
2022/11/03 06:21:12;;;;;;;15.27;3.13;;;;;;;11.47;100.00;100896.44;5229736;28;20109;-70
2022/11/03 06:23:44;;;;;;;12.57;3.40;;;;;;;11.43;100.00;100899.34;5232142;28;20439;-70
2022/11/03 06:26:19;;;;;;;14.73;4.23;;;;;;;11.43;100.00;100883.63;5233698;28;20120;-70
2022/11/03 06:28:51;;;;;;;11.07;3.00;;;;;;;11.41;100.00;100893.34;5232236;28;20104;-70
2022/11/03 06:31:31;;;;;;;16.30;3.43;;;;;;;11.42;100.00;100882.75;5232691;28;20198;-71
2022/11/03 06:34:21;;;;;;;14.47;3.50;;;;;;;11.45;100.00;100890.44;5233207;28;20373;-71
2022/11/03 06:36:56;;;;;;;11.10;3.70;;;;;;;11.44;100.00;100882.66;5231490;28;20021;-71
2022/11/03 06:39:27;;;;;;;11.27;4.10;;;;;;;11.43;100.00;100881.81;5231522;28;20064;-70
2022/11/03 06:42:09;;;;;;;14.20;4.40;;;;;;;11.41;100.00;100875.84;5230980;28;20064;-70
2022/11/03 06:44:44;;;;;;;14.90;3.67;;;;;;;11.40;100.00;100876.75;5231547;28;20564;-69
2022/11/03 06:47:26;;;;;;;14.82;3.13;;;;;;;11.53;100.00;100879.47;5232245;28;20030;-71
2022/11/03 06:49:59;;;;;;;17.20;2.73;;;;;;;11.40;100.00;100868.06;5233243;28;20033;-72
2022/11/03 06:52:38;;;;;;;16.03;3.73;;;;;;;11.53;100.00;100868.97;5232078;28;20030;-73
2022/11/03 06:55:09;;;;;;;10.90;3.27;;;;;;;11.47;100.00;100870.19;5232952;28;20226;-71
2022/11/03 06:57:44;;;;;;;14.03;4.30;;;;;;;11.42;100.00;100866.19;5232345;28;20112;-71
2022/11/03 07:00:25;;;;;;;11.03;2.60;;;;;;;11.48;100.00;100871.88;5246160;28;20403;-71
2022/11/03 07:03:04;;;;;;;13.67;3.47;;;;;;;11.47;100.00;100871.97;5232880;28;20025;-70
2022/11/03 07:05:36;;;;;;;12.70;3.40;;;;;;;11.45;100.00;100871.25;5234668;28;20091;-69
2022/11/03 07:08:29;;;;;;;14.83;4.20;;;;;;;11.51;100.00;100865.59;5234106;28;20057;-70
2022/11/03 07:11:09;;;;;;;12.97;3.20;;;;;;;11.52;100.00;100856.78;5247951;28;20025;-70
2022/11/03 07:13:41;;;;;;;9.87;2.27;;;;;;;11.53;100.00;100852.38;5231523;28;20032;-70
2022/11/03 07:16:20;;;;;;;16.47;4.13;;;;;;;11.55;100.00;100856.63;5232765;28;20376;-73
2022/11/03 07:18:52;;;;;;;16.10;4.00;;;;;;;11.43;100.00;100833.78;5232356;28;20025;-70
2022/11/03 07:21:30;;;;;;;15.67;3.57;;;;;;;11.57;100.00;100852.09;5231392;28;20057;-72
2022/11/03 07:24:12;;;;;;;10.70;3.00;;;;;;;11.66;100.00;100855.09;5230483;28;20126;-69
2022/11/03 07:26:43;;;;;;;13.03;2.70;;;;;;;11.60;100.00;100836.16;5232863;28;20490;-71
2022/11/03 07:29:21;;;;;;;14.53;3.00;;;;;;;11.62;100.00;100844.75;5265204;28;20079;-72
2022/11/03 07:31:53;;;;;;;19.30;3.87;;;;;;;11.67;100.00;100839.25;5235387;28;20380;-69
2022/11/03 07:34:28;;;;;;;14.73;3.13;;;;;;;11.72;100.00;100834.53;5229676;28;20026;-70
2022/11/03 07:36:59;;;;;;;13.20;4.20;;;;;;;11.72;100.00;100836.31;5229746;28;20776;-72
2022/11/03 07:39:36;;;;;;;13.57;3.63;;;;;;;11.59;100.00;100803.00;5234450;28;20041;-70
2022/11/03 07:42:18;;;;;;;17.07;4.27;;;;;;;11.72;100.00;100825.81;5232322;28;20032;-70
2022/11/03 07:44:51;;;;;;;18.73;3.33;;;;;;;11.72;100.00;100831.06;5233300;28;20045;-70
2022/11/03 07:47:27;;;;;;;12.00;3.27;;;;;;;11.67;100.00;100813.00;5235732;28;20018;-72
2022/11/03 07:49:59;;;;;;;17.63;3.50;;;;;;;11.76;100.00;100835.19;5235689;28;20025;-71
2022/11/03 07:52:30;;;;;;;13.40;3.27;;;;;;;11.75;100.00;100830.84;5231457;28;20024;-70
2022/11/03 07:55:10;;;;;;;11.33;2.77;;;;;;;11.80;100.00;100833.19;5231991;28;20816;-70
2022/11/03 07:57:41;;;;;;;10.90;2.80;;;;;;;11.80;100.00;100834.00;5231545;28;20393;-70
2022/11/03 08:00:20;;;;;;;14.63;2.97;;;;;;;11.85;100.00;100847.69;5230240;28;20025;-71
2022/11/03 08:02:59;;;;;;;11.90;3.47;;;;;;;11.76;100.00;100816.81;5231254;28;20040;-69
2022/11/03 08:05:30;;;;;;;10.87;2.90;;;;;;;11.82;100.00;100819.03;5262351;28;20029;-71
2022/11/03 08:08:02;;;;;;;14.73;3.23;;;;;;;11.86;100.00;100820.50;5231154;28;20094;-71
2022/11/03 08:10:33;;;;;;;15.00;3.70;;;;;;;11.87;100.00;100823.97;5231462;28;20033;-70
2022/11/03 08:13:04;;;;;;;7.97;2.70;;;;;;;11.85;100.00;100816.19;5231632;28;20042;-71
2022/11/03 08:15:35;;;;;;;10.60;3.40;;;;;;;11.86;100.00;100807.38;5234855;28;20041;-71
2022/11/03 08:18:07;;;;;;;14.03;3.23;;;;;;;11.95;100.00;100810.34;5235641;28;20026;-70
2022/11/03 08:20:38;;;;;;;11.53;2.50;;;;;;;11.74;100.00;100766.22;5232448;28;20041;-70
2022/11/03 08:23:10;;;;;;;14.80;2.97;;;;;;;11.98;100.00;100794.38;5231697;28;20108;-71
2022/11/03 08:25:42;;;;;;;10.93;2.83;;;;;;;11.90;100.00;100766.03;5234152;28;20029;-71
2022/11/03 08:28:13;;;;;;;15.50;3.67;;;;;;;11.88;99.83;100753.94;5234626;28;20506;-71
2022/11/03 08:30:45;;;;;;;13.53;3.33;;;;;;;12.03;100.00;100768.66;5232159;28;20025;-70
2022/11/03 08:33:16;;;;;;;16.10;3.60;;;;;;;12.07;99.72;100771.94;5235146;28;20013;-71
2022/11/03 08:35:47;;;;;;;10.17;3.17;;;;;;;12.06;98.62;100757.97;5233588;28;20484;-72
2022/11/03 08:38:19;;;;;;;16.87;3.87;;;;;;;12.06;98.63;100744.00;5233926;28;20029;-71
2022/11/03 08:40:51;;;;;;;13.00;2.77;;;;;;;12.04;98.72;100725.75;5233587;28;20029;-71
2022/11/03 08:43:23;;;;;;;15.37;4.50;;;;;;;12.22;97.00;100733.31;5233165;28;20036;-71
2022/11/03 08:45:54;;;;;;;12.20;2.83;;;;;;;12.26;96.66;100726.06;5233243;28;20056;-71
2022/11/03 08:48:26;;;;;;;9.77;2.80;;;;;;;12.21;95.76;100698.34;5233302;28;20024;-71
2022/11/03 08:50:57;;;;;;;15.07;4.27;;;;;;;12.12;95.74;100680.59;5233573;28;20029;-71
2022/11/03 08:53:29;;;;;;;8.73;2.50;;;;;;;12.37;95.23;100704.31;5233154;28;20033;-70
2022/11/03 08:56:00;;;;;;;10.90;2.87;;;;;;;12.31;94.98;100680.16;5233148;28;20084;-71
2022/11/03 08:58:31;;;;;;;13.17;2.50;;;;;;;12.13;93.80;100636.81;5232367;28;20303;-71
2022/11/03 09:01:03;;;;;;;13.27;2.80;;;;;;;12.52;93.47;100684.00;5233108;28;20101;-70
2022/11/03 09:03:34;;;;;;;12.93;3.23;;;;;;;12.57;92.07;100680.13;5233842;28;20115;-71
2022/11/03 09:06:08;;;;;;;13.13;2.80;;;;;;;12.61;92.07;100656.25;5233787;28;20034;-72
2022/11/03 09:08:39;;;;;;;12.73;3.25;;;;;;;12.69;91.07;100656.53;5233752;28;20400;-72
2022/11/03 09:11:10;;;;;;;14.57;2.43;;;;;;;12.79;90.95;100646.22;5233140;28;20025;-72
2022/11/03 09:13:42;;;;;;;9.37;2.57;;;;;;;12.91;89.50;100654.97;5231920;28;20387;-71
2022/11/03 09:16:13;;;;;;;12.30;3.10;;;;;;;12.77;89.23;100614.78;5233389;28;20037;-71
2022/11/03 09:18:44;;;;;;;12.23;3.30;;;;;;;12.95;88.52;100630.97;5235572;28;20026;-72
2022/11/03 09:21:15;;;;;;;14.23;3.60;;;;;;;13.09;88.41;100629.13;5234377;28;20473;-72
2022/11/03 09:23:47;;;;;;;17.23;3.23;;;;;;;12.92;87.98;100577.78;5235158;28;20075;-72
2022/11/03 09:26:19;;;;;;;10.53;2.80;;;;;;;12.83;86.69;100551.25;5235603;28;20028;-72
2022/11/03 09:28:50;;;;;;;13.70;2.87;;;;;;;13.09;87.50;100587.06;5234307;28;20476;-72
2022/11/03 09:31:24;;;;;;;9.30;2.60;;;;;;;12.99;86.93;100568.50;5234901;28;20025;-72
2022/11/03 09:33:56;;;;;;;10.50;2.03;;;;;;;13.23;85.79;100595.72;5235116;28;20032;-72
2022/11/03 09:36:27;;;;;;;8.60;2.63;;;;;;;13.21;85.77;100585.31;5236882;28;20456;-72
2022/11/03 09:38:58;;;;;;;10.83;2.50;;;;;;;13.16;85.61;100569.06;5239493;28;20021;-72
2022/11/03 09:41:31;;;;;;;10.03;2.97;;;;;;;13.20;85.32;100575.72;5235269;28;20113;-70
2022/11/03 09:44:02;;;;;;;8.50;2.37;;;;;;;13.29;84.80;100574.19;5233336;28;20626;-71
2022/11/03 09:46:34;;;;;;;13.03;3.23;;;;;;;13.10;84.85;100551.94;5234907;28;20104;-71
2022/11/03 09:49:05;;;;;;;10.20;2.73;;;;;;;13.18;85.10;100551.34;5235223;28;20029;-72
2022/11/03 09:51:37;;;;;;;10.97;3.13;;;;;;;13.22;84.69;100563.31;5234992;28;20033;-71
2022/11/03 09:54:11;;;;;;;8.70;2.70;;;;;;;13.20;84.97;100554.69;5235119;28;20400;-71
2022/11/03 09:56:43;;;;;;;10.50;2.40;;;;;;;13.25;84.48;100547.28;5234109;28;20026;-72
2022/11/03 09:59:20;;;;;;;11.63;2.90;;;;;;;13.24;84.81;100543.00;5238761;28;20072;-72
2022/11/03 10:01:52;;;;;;;12.37;2.43;;;;;;;13.21;84.71;100543.25;5238949;28;20029;-71
2022/11/03 10:04:26;;;;;;;10.53;2.37;;;;;;;13.22;84.77;100541.44;5238980;28;20053;-70
2022/11/03 10:06:58;;;;;;;7.68;2.83;;;;;;;13.11;85.42;100524.69;5239019;28;20024;-72
2022/11/03 10:09:29;;;;;;;7.03;2.20;;;;;;;13.23;84.93;100541.31;5239068;28;20033;-71
2022/11/03 10:12:01;;;;;;;12.33;3.60;;;;;;;13.16;84.60;100508.56;5238655;28;20105;-71
2022/11/03 10:14:32;;;;;;;12.67;3.87;;;;;;;13.17;84.57;100523.38;5237356;28;20029;-71
2022/11/03 10:17:03;;;;;;;9.80;2.70;;;;;;;13.13;84.78;100521.94;5238733;28;20033;-71
2022/11/03 10:19:35;;;;;;;8.73;2.47;;;;;;;13.09;84.65;100504.72;5238787;28;20388;-71
2022/11/03 10:22:06;;;;;;;9.67;2.87;;;;;;;13.17;84.42;100508.44;5240342;28;20041;-71
2022/11/03 10:24:37;;;;;;;18.20;2.37;;;;;;;13.13;84.74;100495.63;5238911;28;20502;-71
2022/11/03 10:27:21;;;;;;;10.37;2.57;;;;;;;13.23;84.89;100516.81;5238964;28;20030;-71
2022/11/03 10:30:06;;;;;;;9.50;2.70;;;;;;;13.20;84.83;100491.59;5238010;28;20040;-71
2022/11/03 10:32:38;;;;;;;6.73;2.67;;;;;;;13.00;84.81;100469.47;5238515;28;20029;-70
2022/11/03 10:35:32;;;;;;;10.30;2.57;;;;;;;13.22;85.09;100488.84;5238998;28;20093;-71
2022/11/03 10:38:27;;;;;;;10.45;2.70;;;;;;;13.11;85.14;100471.28;5238706;28;20025;-71
2022/11/03 10:41:14;;;;;;;10.20;2.40;;;;;;;13.22;84.84;100471.28;5240031;28;20028;-71
2022/11/03 10:44:10;;;;;;;9.70;3.00;;;;;;;13.34;84.46;100476.53;5241031;28;20061;-72
2022/11/03 10:46:58;;;;;;;10.93;3.07;;;;;;;13.35;83.91;100472.97;5238427;28;20036;-72
2022/11/03 10:49:31;;;;;;;7.53;1.90;;;;;;;13.47;82.82;100482.53;5238102;28;20025;-71
2022/11/03 10:52:08;;;;;;;9.13;2.90;;;;;;;13.52;82.72;100475.16;5237784;28;20034;-72
2022/11/03 10:54:40;;;;;;;8.10;2.10;;;;;;;13.46;82.55;100453.72;5238791;28;20055;-71
2022/11/03 10:57:12;;;;;;;8.93;2.73;;;;;;;13.63;81.48;100465.56;5238607;28;20022;-71
2022/11/03 10:59:45;;;;;;;9.73;2.50;;;;;;;13.62;82.14;100459.47;5237294;28;20068;-71
2022/11/03 11:02:19;;;;;;;7.30;2.97;;;;;;;13.32;82.89;100405.63;5238770;28;20113;-71
2022/11/03 11:05:03;;;;;;;11.95;2.92;;;;;;;13.62;81.06;100421.78;5238310;28;20053;-72
2022/11/03 11:07:39;;;;;;;11.83;3.27;;;;;;;13.79;81.26;100466.00;5236392;28;20124;-72
2022/11/03 11:10:16;;;;;;;8.00;2.50;;;;;;;13.84;80.43;100451.66;5237817;28;20279;-72
2022/11/03 11:13:23;;;;;;;7.53;2.70;;;;;;;13.93;80.87;100450.91;5237796;28;20033;-72
2022/11/03 11:15:57;;;;;;;9.87;2.80;;;;;;;13.84;79.61;100435.88;5237785;28;20037;-72
2022/11/03 11:18:28;;;;;;;10.95;3.20;;;;;;;13.89;80.00;100444.22;5238007;28;20080;-72
2022/11/03 11:21:16;;;;;;;4.63;2.17;;;;;;;13.95;80.66;100438.44;5237993;28;20025;-72
2022/11/03 11:23:48;;;;;;;11.57;2.37;;;;;;;13.83;80.07;100410.47;5237700;28;20033;-73
2022/11/03 11:26:25;;;;;;;12.10;2.60;;;;;;;14.00;79.73;100425.75;5237722;28;20033;-73
2022/11/03 11:29:08;;;;;;;8.10;2.10;;;;;;;14.03;79.69;100417.59;5237148;28;20025;-72
2022/11/03 11:31:46;;;;;;;8.17;2.57;;;;;;;14.02;79.52;100407.19;5237740;28;20091;-72
2022/11/03 11:34:20;;;;;;;11.53;3.03;;;;;;;14.08;79.35;100396.19;5237875;28;20559;-72
2022/11/03 11:36:54;;;;;;;;;;;;;;;14.22;79.31;100397.69;5238609;28;20022;-72
2022/11/03 11:39:26;;;;;;;5.33;1.70;;;;;;;14.15;77.73;100391.25;5237282;28;20398;-72
2022/11/03 11:42:13;;;;;;;6.87;1.80;;;;;;;14.17;77.59;100378.78;5236126;28;20026;-71
2022/11/03 11:44:55;;;;;;;14.83;3.40;;;;;;;14.17;77.82;100372.69;5234449;28;20068;-72
2022/11/03 11:47:28;;;;;;;5.83;2.07;;;;;;;14.07;77.04;100341.81;5235928;28;20022;-71
2022/11/03 11:50:05;;;;;;;7.53;2.30;;;;;;;14.17;77.67;100357.72;5237593;28;20049;-71
2022/11/03 11:52:57;;;;;;;12.97;2.47;;;;;;;14.17;78.33;100336.66;5237217;28;20027;-71
2022/11/03 11:55:42;;;;;;;7.33;2.50;;;;;;;14.22;77.53;100325.72;5237353;28;20038;-72
2022/11/03 11:58:32;;;;;;;7.13;2.23;;;;;;;14.25;77.66;100302.59;5237647;28;20079;-73
2022/11/03 12:01:42;;;;;;;9.33;1.83;;;;;;;14.23;76.52;100303.69;5236872;28;20029;-70
2022/11/03 12:04:16;;;;;;;7.07;2.60;;;;;;;14.28;76.63;100301.50;5198072;28;20107;-72
2022/11/03 12:06:48;;;;;;;6.05;2.17;;;;;;;14.28;76.62;100294.44;5229470;28;20044;-72
2022/11/03 12:09:26;;;;;;;7.50;2.50;;;;;;;14.31;76.10;100295.13;5236679;28;20018;-69
2022/11/03 12:11:59;;;;;;;12.40;2.40;;;;;;;14.35;75.83;100297.38;5234512;28;20021;-69